Terminal Aerodrome Forecast
Issued by NWS Mt. Holly, NJ

Home | Current Version | Previous Version | Text Only | Print | Product List | Glossary On
Versions: 1 2 3 4 5 6 7 8 9 10 11 12 13 14 15
000
FTAK31 PANC 231740
TAFABE
TAF
PABE 231740Z 2318/2418 VRB03KT 5SM -RA BR FEW004 OVC015
      TEMPO 2318/2321 2SM -RA BR BKN002
     FM232100 03006KT P6SM -RA OVC015
     FM240500 36010KT 3SM -RA BR OVC005=

USA.gov is the U.S. government's official web portal to all federal, state and local government web resources and services.